Etusivu
METAR-TAF:

METAR-TAF

Lentoasemat :

Farnborough, Englanti

Leveyspiiri: 51-17N, Pituuspiiri: 000-46W, korkeus merenpinnasta: 65 m

Tämänhetkinen sää

Tämä raportti tehtiin 38 minuuttia sitten, kello 20.50 UTC
Tuuli 3 kn etelästä/lounaasta
Lämpötila 1°C
Kosteus 93%
Ilmanpaine 1018 hPa
Näkyvyys 10 km tai enemmän

METAR: EGLF 182050Z AUTO 21003KT 9999 FEW026/// BKN036/// 01/00 Q1018

Aika: 21:28 (21:28 UTC)

Sääennuste

Tämä raportti tehtiin 1 tunti ja 32 minuuttia sitten, kello 19.56 UTC
Ennuste voimassa 18. päivästä klo 21 UTC - 18. päivään klo 23 UTC
Tuuli 5 kn lännestä
Näkyvyys 10 km tai enemmän
Muutamia pilviä 3500 ft:n korkeudessa
Tulossa
18. päivästä klo 21 UTC - 18. päivään klo 23 UTC
Näkyvyys: 8000 m
Todennäköisyys 40%
18. päivästä klo 21 UTC - 18. päivään klo 23 UTC
Näkyvyys: 3000 m
utua

TAF: EGLF 181956Z 1821/1823 28005KT 9999 FEW035 BECMG 1821/1823 8000 PROB40 1821/1823 3000 BR

Säähavainnot ja -ennusteet yli 4000 lentoasemalta (METAR- ja TAF-raportit).

Käytössä olevat sääasemat on merkitty karttaan keltaisilla ja punaisilla pisteillä.

Aseta hiiri pisteen päälle nähdäksesi sääaseman nimen.

Klikkaa sitten nähdäksesi säähavainnot ja -ennusteet.

Kartan vaihtaminen: klikkaa mustalla rastilla varustettuja vihreitä pisteitä, niin voit zoomata sisään; viivalla varustettua vihreää pistettä, niin voit zoomata ulos tai vihreitä nuolia, niin pääset viereisille kartoille.


METAR-TAF: